Pleasant Valley, Wisconsin
Current Conditions -  °F | °C
As of 3:35 PM on Friday 28 Nov 2014 (Local Time) from KRNH Reporting Station
Light Snow Light Snow  
Wind Chill: 13°   Ceiling: 2100
Heat Index: 21°   Visibility: 10mi
Dew Point: 14°   Wind: 6mph
Humidity: 76%   Direction: 110°ESE
Pressure: 29.88"   Gusts: NA
Location:  44.9597°N, 92.4593°W
Report Text: KRNH 282135Z AUTO 11005KT 10SM -SN OVC021 M06/M10 A2988 RMK AO2 T10631099
Loading
Personal Weather Stations






























Interactive Weather Map New forecast layout! Learn more

10-Day Weather Forecast

Advertisements
Track Severe Weather on mobile